createdAt,value
2019-03-08T00:01:15.489Z,21.34
2019-03-08T00:03:44.298Z,21.32
2019-03-08T00:06:13.235Z,21.29
2019-03-08T00:08:42.046Z,21.28
2019-03-08T00:11:10.910Z,21.25
2019-03-08T00:13:39.673Z,21.23
2019-03-08T00:16:08.611Z,21.20
2019-03-08T00:18:37.558Z,21.20
2019-03-08T00:21:06.421Z,21.17
2019-03-08T00:23:35.667Z,21.16
2019-03-08T00:26:04.486Z,21.14
2019-03-08T00:28:33.327Z,21.13
2019-03-08T00:31:02.138Z,21.10
2019-03-08T00:33:30.966Z,21.09
2019-03-08T00:35:59.720Z,21.07
2019-03-08T00:38:28.795Z,21.06
2019-03-08T00:40:57.702Z,21.03
2019-03-08T00:43:26.607Z,21.02
2019-03-08T00:45:55.561Z,21.00
2019-03-08T00:48:24.398Z,20.98
2019-03-08T00:50:53.278Z,20.96
2019-03-08T00:53:22.419Z,20.94
2019-03-08T00:55:51.288Z,20.92
2019-03-08T00:58:20.148Z,20.91
2019-03-08T01:00:49.069Z,20.88
2019-03-08T01:03:17.986Z,20.88
2019-03-08T01:05:46.776Z,20.85
2019-03-08T01:08:15.680Z,20.84
2019-03-08T01:10:44.584Z,20.82
2019-03-08T01:13:13.499Z,20.80
2019-03-08T01:15:42.320Z,20.78
2019-03-08T01:18:11.249Z,20.77
2019-03-08T01:20:40.063Z,20.75
2019-03-08T01:23:09.028Z,20.74
2019-03-08T01:25:37.913Z,20.73
2019-03-08T01:28:11.381Z,20.72
2019-03-08T01:30:40.469Z,20.69
2019-03-08T01:33:09.253Z,20.68
2019-03-08T01:35:38.197Z,20.66
2019-03-08T01:38:07.087Z,20.65
2019-03-08T01:40:35.964Z,20.63
2019-03-08T01:43:04.881Z,20.62
2019-03-08T01:45:33.876Z,20.60
2019-03-08T01:48:02.997Z,20.58
2019-03-08T01:50:32.019Z,20.57
2019-03-08T01:53:00.929Z,20.56
2019-03-08T01:55:29.828Z,20.55
2019-03-08T01:57:58.688Z,20.52
2019-03-08T02:00:27.539Z,20.52
2019-03-08T02:02:56.473Z,20.50
2019-03-08T02:05:25.280Z,20.49
2019-03-08T02:07:54.286Z,20.47
2019-03-08T02:10:23.086Z,20.47
2019-03-08T02:12:51.819Z,20.45
2019-03-08T02:15:20.652Z,20.43
2019-03-08T02:17:49.696Z,20.43
2019-03-08T02:20:19.834Z,20.42
2019-03-08T02:22:48.676Z,20.40
2019-03-08T02:25:17.619Z,20.39
2019-03-08T02:27:46.480Z,20.38
2019-03-08T02:30:16.320Z,20.36
2019-03-08T02:32:45.226Z,20.34
2019-03-08T02:35:14.291Z,20.33
2019-03-08T02:37:43.163Z,20.32
2019-03-08T02:40:29.419Z,20.30
2019-03-08T02:42:58.413Z,20.29
2019-03-08T02:45:27.213Z,20.27
2019-03-08T02:47:56.107Z,20.25
2019-03-08T02:50:24.910Z,20.24
2019-03-08T02:52:53.702Z,20.23
2019-03-08T02:55:22.554Z,20.22
2019-03-08T02:57:51.729Z,20.21
2019-03-08T03:00:20.660Z,20.20
2019-03-08T03:02:49.475Z,20.18
2019-03-08T03:05:18.307Z,20.17
2019-03-08T03:07:47.259Z,20.16
2019-03-08T03:10:16.094Z,20.15
2019-03-08T03:12:45.064Z,20.14
2019-03-08T03:15:14.081Z,20.13
2019-03-08T03:17:42.900Z,20.12
2019-03-08T03:20:11.736Z,20.10
2019-03-08T03:22:40.700Z,20.10
2019-03-08T03:25:10.142Z,20.09
2019-03-08T03:27:38.952Z,20.08
2019-03-08T03:30:08.285Z,20.07
2019-03-08T03:32:37.190Z,20.06
2019-03-08T03:35:06.320Z,19.80
2019-03-08T03:37:35.179Z,20.04
2019-03-08T03:40:04.812Z,20.02
2019-03-08T03:42:33.732Z,20.01
2019-03-08T03:45:02.632Z,20.02
2019-03-08T03:47:31.394Z,20.00
2019-03-08T03:50:00.300Z,20.00
2019-03-08T03:52:28.941Z,19.97
2019-03-08T03:54:57.849Z,19.96
2019-03-08T03:57:26.711Z,19.95
2019-03-08T03:59:55.423Z,19.93
2019-03-08T04:02:24.325Z,19.94
2019-03-08T04:04:53.277Z,19.92
2019-03-08T04:07:22.052Z,19.92
2019-03-08T04:09:50.946Z,19.91
2019-03-08T04:12:19.687Z,19.90
2019-03-08T04:14:48.574Z,19.89
2019-03-08T04:17:17.408Z,19.88
2019-03-08T04:19:46.251Z,19.86
2019-03-08T04:22:15.135Z,19.86
2019-03-08T04:24:43.980Z,19.85
2019-03-08T04:27:12.696Z,19.83
2019-03-08T04:29:41.552Z,19.83
2019-03-08T04:32:10.348Z,19.81
2019-03-08T04:34:39.156Z,19.81
2019-03-08T04:37:07.997Z,19.79
2019-03-08T04:39:36.961Z,19.79
2019-03-08T04:42:05.902Z,19.77
2019-03-08T04:44:34.662Z,19.77
2019-03-08T04:47:03.500Z,19.74
2019-03-08T04:49:32.451Z,19.74
2019-03-08T04:52:01.342Z,19.73
2019-03-08T04:54:30.258Z,19.74
2019-03-08T04:56:59.140Z,19.73
2019-03-08T04:59:27.969Z,19.72
2019-03-08T05:01:56.760Z,19.70
2019-03-08T05:04:25.568Z,19.69
2019-03-08T05:06:54.550Z,19.68
2019-03-08T05:09:23.396Z,19.67
2019-03-08T05:11:52.317Z,19.66
2019-03-08T05:14:21.061Z,19.67
2019-03-08T05:16:49.815Z,19.64
2019-03-08T05:19:18.673Z,19.65
2019-03-08T05:21:47.785Z,19.63
2019-03-08T05:24:16.627Z,19.63
2019-03-08T05:26:45.408Z,19.64
2019-03-08T05:29:14.285Z,19.64
2019-03-08T05:31:43.178Z,19.64
2019-03-08T05:34:11.965Z,19.64
2019-03-08T05:36:40.889Z,19.65
2019-03-08T05:39:11.854Z,19.65
2019-03-08T05:41:40.666Z,19.66
2019-03-08T05:44:09.520Z,19.66
2019-03-08T05:46:38.277Z,19.66
2019-03-08T05:49:07.016Z,19.66
2019-03-08T05:51:36.057Z,19.64
2019-03-08T05:54:04.905Z,19.64
2019-03-08T05:56:33.804Z,19.64
2019-03-08T05:59:02.516Z,19.62
2019-03-08T06:01:31.390Z,19.63
2019-03-08T06:04:00.335Z,19.61
2019-03-08T06:06:29.484Z,19.61
2019-03-08T06:08:58.294Z,19.60
2019-03-08T06:11:27.130Z,19.59
2019-03-08T06:13:55.876Z,19.58
2019-03-08T06:16:24.821Z,19.57
2019-03-08T06:18:53.696Z,19.56
2019-03-08T06:21:22.578Z,19.54
2019-03-08T06:23:52.621Z,19.54
2019-03-08T06:26:21.451Z,19.55
2019-03-08T06:28:52.010Z,19.53
2019-03-08T06:31:20.836Z,19.52
2019-03-08T06:33:49.741Z,19.51
2019-03-08T06:36:18.967Z,19.50
2019-03-08T06:38:47.854Z,19.50
2019-03-08T06:41:16.669Z,19.49
2019-03-08T06:43:45.573Z,19.49
2019-03-08T06:46:14.411Z,19.51
2019-03-08T06:48:43.252Z,19.51
2019-03-08T06:51:12.212Z,19.53
2019-03-08T06:53:41.148Z,19.56
2019-03-08T06:56:09.999Z,19.58
2019-03-08T06:59:02.730Z,19.62
2019-03-08T07:01:35.268Z,19.64
2019-03-08T07:04:04.104Z,19.67
2019-03-08T07:06:33.495Z,19.71
2019-03-08T07:09:02.352Z,19.71
2019-03-08T07:11:31.174Z,19.74
2019-03-08T07:13:59.987Z,19.80
2019-03-08T07:16:29.060Z,19.85
2019-03-08T07:18:57.800Z,19.90
2019-03-08T07:21:45.600Z,19.94
2019-03-08T07:24:30.334Z,19.96
2019-03-08T07:27:20.948Z,19.98
2019-03-08T07:30:07.506Z,20.01
2019-03-08T07:33:10.566Z,20.04
2019-03-08T07:35:58.342Z,20.06
2019-03-08T07:38:49.855Z,20.09
2019-03-08T07:41:49.459Z,20.11
2019-03-08T07:44:40.437Z,20.09
2019-03-08T07:47:24.738Z,20.03
2019-03-08T07:50:11.226Z,20.00
2019-03-08T07:52:53.137Z,19.97
2019-03-08T07:55:28.263Z,19.93
2019-03-08T07:58:09.693Z,19.90
2019-03-08T08:00:57.557Z,19.87
2019-03-08T08:03:31.057Z,19.84
2019-03-08T08:06:27.939Z,19.79
2019-03-08T08:09:06.692Z,19.76
2019-03-08T08:11:59.374Z,19.71
2019-03-08T08:14:39.973Z,19.66
2019-03-08T08:17:39.811Z,19.57
2019-03-08T08:20:39.014Z,19.45
2019-03-08T08:23:34.658Z,19.30
2019-03-08T08:26:19.678Z,19.14
2019-03-08T08:29:13.684Z,18.99
2019-03-08T08:31:57.536Z,18.85
2019-03-08T08:34:36.232Z,18.75
2019-03-08T08:37:18.294Z,18.64
2019-03-08T08:40:09.290Z,18.55
2019-03-08T08:42:49.149Z,18.45
2019-03-08T08:45:45.798Z,18.38
2019-03-08T08:48:33.611Z,18.33
2019-03-08T08:51:17.370Z,18.29
2019-03-08T08:53:57.730Z,18.28
2019-03-08T08:56:37.530Z,18.28
2019-03-08T08:59:24.249Z,18.26
2019-03-08T09:02:10.747Z,18.27
2019-03-08T09:05:01.754Z,18.30
2019-03-08T09:07:49.622Z,18.33
2019-03-08T09:10:28.657Z,18.42
2019-03-08T09:13:16.780Z,18.58
2019-03-08T09:16:16.713Z,18.76
2019-03-08T09:19:07.665Z,18.88
2019-03-08T09:22:00.953Z,18.95
2019-03-08T09:24:39.196Z,18.99
2019-03-08T09:27:22.779Z,19.01
2019-03-08T09:30:11.140Z,19.02
2019-03-08T09:32:59.475Z,19.02
2019-03-08T09:35:35.826Z,19.02
2019-03-08T09:38:22.186Z,19.01
2019-03-08T09:41:15.843Z,19.04
2019-03-08T09:44:01.659Z,19.06
2019-03-08T09:46:49.336Z,19.16
2019-03-08T09:49:26.882Z,19.25
2019-03-08T09:52:14.749Z,19.27
2019-03-08T09:55:08.819Z,19.28
2019-03-08T09:57:56.825Z,19.29
2019-03-08T10:00:36.270Z,19.34
2019-03-08T10:03:27.063Z,19.39
2019-03-08T10:06:30.078Z,19.43
2019-03-08T10:09:18.146Z,19.46
2019-03-08T10:12:09.635Z,19.50
2019-03-08T10:14:56.487Z,19.58
2019-03-08T10:17:43.155Z,19.65
2019-03-08T10:20:33.727Z,19.64
2019-03-08T10:23:20.307Z,19.62
2019-03-08T10:25:55.702Z,19.57
2019-03-08T10:28:34.147Z,19.51
2019-03-08T10:31:13.001Z,19.49
2019-03-08T10:34:06.641Z,19.48
2019-03-08T10:36:54.504Z,19.52
2019-03-08T10:39:37.018Z,19.60
2019-03-08T10:42:21.296Z,19.72
2019-03-08T10:45:04.562Z,19.89
2019-03-08T10:47:57.380Z,20.04
2019-03-08T10:50:37.554Z,20.15
2019-03-08T10:53:21.368Z,20.32
2019-03-08T10:56:04.410Z,20.39
2019-03-08T10:58:55.502Z,20.44
2019-03-08T11:01:49.308Z,20.49
2019-03-08T11:04:32.292Z,20.58
2019-03-08T11:07:25.948Z,20.70
2019-03-08T11:10:11.336Z,20.79
2019-03-08T11:13:07.909Z,20.87
2019-03-08T11:16:04.587Z,20.86
2019-03-08T11:18:54.618Z,20.79
2019-03-08T11:21:54.521Z,20.81
2019-03-08T11:24:41.181Z,20.87
2019-03-08T11:27:32.228Z,20.81
2019-03-08T11:30:17.233Z,20.69
2019-03-08T11:33:04.131Z,20.55
2019-03-08T11:35:58.172Z,20.44
2019-03-08T11:38:42.951Z,20.37
2019-03-08T11:41:31.831Z,20.33
2019-03-08T11:44:23.747Z,20.29
2019-03-08T11:47:11.563Z,20.27
2019-03-08T11:50:05.201Z,20.26
2019-03-08T11:53:02.133Z,20.24
2019-03-08T11:55:58.899Z,20.24
2019-03-08T11:58:39.640Z,20.22
2019-03-08T12:01:28.511Z,20.23
2019-03-08T12:04:16.230Z,20.33
2019-03-08T12:06:58.352Z,20.46
2019-03-08T12:09:58.145Z,20.59
2019-03-08T12:12:54.939Z,20.63
2019-03-08T12:15:45.986Z,20.67
2019-03-08T12:18:31.797Z,20.69
2019-03-08T12:21:19.686Z,20.75
2019-03-08T12:24:25.808Z,20.79
2019-03-08T12:26:59.973Z,20.88
2019-03-08T12:29:47.867Z,20.97
2019-03-08T12:32:35.672Z,21.03
2019-03-08T12:35:22.952Z,21.03
2019-03-08T12:38:09.458Z,21.02
2019-03-08T12:40:57.326Z,21.01
2019-03-08T12:43:45.088Z,21.04
2019-03-08T12:46:29.707Z,21.10
2019-03-08T12:49:26.869Z,21.13
2019-03-08T12:52:20.723Z,21.14
2019-03-08T12:55:11.349Z,21.08
2019-03-08T12:57:59.227Z,21.02
2019-03-08T13:00:45.889Z,20.94
2019-03-08T13:03:39.981Z,20.85
2019-03-08T13:06:14.128Z,20.79
2019-03-08T13:09:00.405Z,20.70
2019-03-08T13:11:33.165Z,20.68
2019-03-08T13:14:00.164Z,20.64
2019-03-08T13:16:29.031Z,20.58
2019-03-08T13:18:57.986Z,20.52
2019-03-08T13:21:26.876Z,20.46
2019-03-08T13:23:55.887Z,20.47
2019-03-08T13:26:24.907Z,20.49
2019-03-08T13:28:54.291Z,20.48
2019-03-08T13:31:23.138Z,20.46
2019-03-08T13:33:55.163Z,20.48
2019-03-08T13:36:24.026Z,20.51
2019-03-08T13:38:53.108Z,20.49
2019-03-08T13:41:22.384Z,20.44
2019-03-08T13:43:51.303Z,20.41
2019-03-08T13:46:20.306Z,20.42
2019-03-08T13:48:51.395Z,20.45
2019-03-08T13:51:19.946Z,20.48
2019-03-08T13:53:48.978Z,20.50
2019-03-08T13:56:17.924Z,20.55
2019-03-08T13:58:47.389Z,20.60
2019-03-08T14:01:16.365Z,20.66
2019-03-08T14:03:45.207Z,20.72
2019-03-08T14:06:13.998Z,20.70
2019-03-08T14:08:43.321Z,20.65
2019-03-08T14:11:12.534Z,20.61
2019-03-08T14:13:41.387Z,20.57
2019-03-08T14:16:10.487Z,20.52
2019-03-08T14:18:39.459Z,20.45
2019-03-08T14:21:08.469Z,20.39
2019-03-08T14:23:37.615Z,20.36
2019-03-08T14:26:06.697Z,20.33
2019-03-08T14:28:35.525Z,20.32
2019-03-08T14:31:26.168Z,20.34
2019-03-08T14:33:55.228Z,20.36
2019-03-08T14:36:24.281Z,20.43
2019-03-08T14:38:53.230Z,20.47
2019-03-08T14:41:31.870Z,20.51
2019-03-08T14:44:26.389Z,20.54
2019-03-08T14:47:04.657Z,20.56
2019-03-08T14:49:33.660Z,20.58
2019-03-08T14:52:02.654Z,20.61
2019-03-08T14:54:31.606Z,20.62
2019-03-08T14:57:00.601Z,20.60
2019-03-08T14:59:29.520Z,20.57
2019-03-08T15:01:58.542Z,20.54
2019-03-08T15:04:29.468Z,20.53
2019-03-08T15:07:01.309Z,20.51
2019-03-08T15:09:29.422Z,20.49
2019-03-08T15:12:00.603Z,20.46
2019-03-08T15:14:30.307Z,20.43
2019-03-08T15:17:08.871Z,20.39
2019-03-08T15:19:30.913Z,20.35
2019-03-08T15:21:59.965Z,20.30
2019-03-08T15:24:37.922Z,20.26
2019-03-08T15:26:59.637Z,20.24
2019-03-08T15:29:28.549Z,20.23
2019-03-08T15:31:57.683Z,20.20
2019-03-08T15:34:26.685Z,20.19
2019-03-08T15:36:55.639Z,20.17
2019-03-08T15:39:24.775Z,20.14
2019-03-08T15:41:53.940Z,20.10
2019-03-08T15:44:24.468Z,20.09
2019-03-08T15:46:55.821Z,20.06
2019-03-08T15:49:26.581Z,20.03
2019-03-08T15:51:55.494Z,19.98
2019-03-08T15:54:24.556Z,19.94
2019-03-08T15:56:53.620Z,19.90
2019-03-08T15:59:22.496Z,19.87
2019-03-08T16:01:51.506Z,19.84
2019-03-08T16:04:20.874Z,19.81
2019-03-08T16:06:49.718Z,19.79
2019-03-08T16:09:18.906Z,19.75
2019-03-08T16:11:48.030Z,19.73
2019-03-08T16:14:17.002Z,19.70
2019-03-08T16:16:45.893Z,19.67
2019-03-08T16:19:14.792Z,19.65
2019-03-08T16:21:46.894Z,19.62
2019-03-08T16:24:14.610Z,19.60
2019-03-08T16:26:43.968Z,19.57
2019-03-08T16:29:13.218Z,19.55
2019-03-08T16:32:13.373Z,19.52
2019-03-08T16:34:42.751Z,19.51
2019-03-08T16:37:17.026Z,19.47
2019-03-08T16:40:11.381Z,19.46
2019-03-08T16:42:47.340Z,19.44
2019-03-08T16:45:32.291Z,19.42
2019-03-08T16:48:17.597Z,19.39
2019-03-08T16:51:15.401Z,19.37
2019-03-08T16:53:54.060Z,19.34
2019-03-08T16:56:45.355Z,19.31
2019-03-08T16:59:23.351Z,19.29
2019-03-08T17:02:05.821Z,19.28
2019-03-08T17:04:54.443Z,19.24
2019-03-08T17:07:41.481Z,19.22
2019-03-08T17:10:28.726Z,19.20
2019-03-08T17:13:23.747Z,19.23
2019-03-08T17:16:24.286Z,19.29
2019-03-08T17:19:11.420Z,19.42
2019-03-08T17:21:51.823Z,19.58
2019-03-08T17:24:51.983Z,19.74
2019-03-08T17:27:49.460Z,19.92
2019-03-08T17:30:31.693Z,20.12
2019-03-08T17:33:22.904Z,20.25
2019-03-08T17:36:01.119Z,20.41
2019-03-08T17:38:45.956Z,20.56
2019-03-08T17:41:33.394Z,20.66
2019-03-08T17:44:16.848Z,20.77
2019-03-08T17:47:07.914Z,20.87
2019-03-08T17:49:54.582Z,20.95
2019-03-08T17:52:54.646Z,21.04
2019-03-08T17:55:48.839Z,21.12
2019-03-08T17:58:35.989Z,21.17
2019-03-08T18:01:15.097Z,21.22
2019-03-08T18:04:02.552Z,21.26
2019-03-08T18:06:49.627Z,21.30
2019-03-08T18:09:31.879Z,21.26
2019-03-08T18:12:24.063Z,21.17
2019-03-08T18:15:12.939Z,21.06
2019-03-08T18:18:16.649Z,20.99
2019-03-08T18:20:58.488Z,20.90
2019-03-08T18:23:35.746Z,20.89
2019-03-08T18:26:17.766Z,20.92
2019-03-08T18:29:01.952Z,20.99
2019-03-08T18:31:45.524Z,21.07
2019-03-08T18:34:43.042Z,21.17
2019-03-08T18:37:25.940Z,21.31
2019-03-08T18:40:20.615Z,21.49
2019-03-08T18:42:57.300Z,21.68
2019-03-08T18:45:46.406Z,21.88
2019-03-08T18:48:34.330Z,22.06
2019-03-08T18:51:21.376Z,22.24
2019-03-08T18:54:09.460Z,22.33
2019-03-08T18:57:09.419Z,22.38
2019-03-08T18:59:51.624Z,22.48
2019-03-08T19:02:36.590Z,22.61
2019-03-08T19:05:37.888Z,22.65
2019-03-08T19:08:26.263Z,22.62
2019-03-08T19:11:23.551Z,22.68
2019-03-08T19:14:11.193Z,22.76
2019-03-08T19:17:02.830Z,22.77
2019-03-08T19:19:55.034Z,22.76
2019-03-08T19:22:52.625Z,22.78
2019-03-08T19:25:50.275Z,22.79
2019-03-08T19:28:38.692Z,22.80
2019-03-08T19:31:32.968Z,22.80
2019-03-08T19:34:12.771Z,22.79
2019-03-08T19:36:51.999Z,22.78
2019-03-08T19:39:43.154Z,22.73
2019-03-08T19:42:38.159Z,22.70
2019-03-08T19:45:22.719Z,22.66
2019-03-08T19:48:10.343Z,22.60
2019-03-08T19:50:58.482Z,22.54
2019-03-08T19:53:54.745Z,22.56
2019-03-08T19:56:49.483Z,22.75
2019-03-08T19:59:29.577Z,22.97
2019-03-08T20:02:15.409Z,23.16
2019-03-08T20:04:57.697Z,23.28
2019-03-08T20:07:39.543Z,23.37
2019-03-08T20:10:44.402Z,23.39
2019-03-08T20:13:42.234Z,23.40
2019-03-08T20:16:34.876Z,23.39
2019-03-08T20:19:24.297Z,23.38
2019-03-08T20:22:10.395Z,23.37
2019-03-08T20:25:11.730Z,23.34
2019-03-08T20:27:54.877Z,23.31
2019-03-08T20:30:42.193Z,23.23
2019-03-08T20:33:34.281Z,23.19
2019-03-08T20:36:23.619Z,23.13
2019-03-08T20:39:11.167Z,23.10
2019-03-08T20:42:07.188Z,23.04
2019-03-08T20:44:49.616Z,22.99
2019-03-08T20:47:23.131Z,22.92
2019-03-08T20:49:53.059Z,22.88
2019-03-08T20:52:23.471Z,22.83
2019-03-08T20:54:53.294Z,22.79
2019-03-08T20:57:23.334Z,22.74
2019-03-08T20:59:53.771Z,22.70
2019-03-08T21:02:24.085Z,22.66
2019-03-08T21:04:54.331Z,22.60
2019-03-08T21:07:24.723Z,22.56
2019-03-08T21:09:55.275Z,22.53
2019-03-08T21:12:25.640Z,22.49
2019-03-08T21:14:56.616Z,22.46
2019-03-08T21:17:26.248Z,22.40
2019-03-08T21:19:55.919Z,22.37
2019-03-08T21:22:26.404Z,22.37
2019-03-08T21:24:56.163Z,22.36
2019-03-08T21:27:26.548Z,22.36
2019-03-08T21:29:57.171Z,22.36
2019-03-08T21:32:27.329Z,22.36
2019-03-08T21:34:57.375Z,22.36
2019-03-08T21:37:27.626Z,22.36
2019-03-08T21:39:57.762Z,22.32
2019-03-08T21:42:28.262Z,22.31
2019-03-08T21:44:57.994Z,22.27
2019-03-08T21:47:27.557Z,22.25
2019-03-08T21:49:56.962Z,22.28
2019-03-08T21:52:26.121Z,22.30
2019-03-08T21:54:55.540Z,22.34
2019-03-08T21:57:25.660Z,22.38
2019-03-08T21:59:55.176Z,22.46
2019-03-08T22:02:24.629Z,22.54
2019-03-08T22:04:58.184Z,22.62
2019-03-08T22:07:27.955Z,22.68
2019-03-08T22:10:31.544Z,22.76
2019-03-08T22:13:00.719Z,22.82
2019-03-08T22:15:30.244Z,22.89
2019-03-08T22:17:59.520Z,22.91
2019-03-08T22:20:28.670Z,22.96
2019-03-08T22:22:57.967Z,22.97
2019-03-08T22:25:27.451Z,22.96
2019-03-08T22:27:56.823Z,22.94
2019-03-08T22:30:26.337Z,22.92
2019-03-08T22:32:55.690Z,22.89
2019-03-08T22:35:24.739Z,22.86
2019-03-08T22:37:54.060Z,22.81
2019-03-08T22:40:23.293Z,22.78
2019-03-08T22:42:52.287Z,22.74
2019-03-08T22:45:21.286Z,22.70
2019-03-08T22:47:50.243Z,22.67
2019-03-08T22:50:19.722Z,22.63
2019-03-08T22:52:48.891Z,22.58
2019-03-08T22:55:18.121Z,22.55
2019-03-08T22:57:47.075Z,22.53
2019-03-08T23:00:25.769Z,22.50
2019-03-08T23:02:54.833Z,22.46
2019-03-08T23:05:23.674Z,22.43
2019-03-08T23:07:52.830Z,22.39
2019-03-08T23:10:21.852Z,22.35
2019-03-08T23:12:52.328Z,22.33
2019-03-08T23:15:21.483Z,22.30
2019-03-08T23:17:50.400Z,22.28
2019-03-08T23:20:19.351Z,22.23
2019-03-08T23:22:48.327Z,22.21
2019-03-08T23:25:17.268Z,22.18
2019-03-08T23:27:55.643Z,22.14
2019-03-08T23:30:28.020Z,22.12
2019-03-08T23:32:57.235Z,22.09
2019-03-08T23:35:26.370Z,22.06
2019-03-08T23:37:55.762Z,22.04
2019-03-08T23:40:24.756Z,22.01
2019-03-08T23:42:53.606Z,21.98
2019-03-08T23:45:22.531Z,21.95
2019-03-08T23:47:51.399Z,21.92
2019-03-08T23:50:20.278Z,21.89
2019-03-08T23:52:49.205Z,21.86
2019-03-08T23:55:18.054Z,21.83
2019-03-08T23:57:47.005Z,21.80
